Impacts METAR Board
IDs:

KLAX - Los Angeles Intl, CA, US

Updated at: 1900 UTC 02 Oct 2022
Potential Impact None Slight Moderate High
Time 02/07Z 02/08Z 02/09Z 02/10Z 02/11Z 02/12Z 02/13Z 02/14Z 02/15Z 02/16Z 02/17Z 02/18Z 02/19Z
Temp67 68 67 68 68 68 68 68 68 70 69 71 73
Dewpt59 58 58 58 58 58 58 58 58 59 59 60 60
Altim29.91 29.91 29.91 29.90 29.90 29.90 29.91 29.93 29.95 29.96 29.98 29.97 29.96
VIS10 10 10 10 10 10 8 10 10 10 10 10 10
CIG20 22 22 22 22 22 22 23 23 24 25 26 --
CoverOVCOVCOVCOVCOVCOVCOVCOVCOVCOVCOVCBKNSCT
FltCatMVFRMVFRMVFRMVFRMVFRMVFRMVFRMVFRMVFRMVFRMVFRMVFRVFR
WX--------------------------
WDir180180150701030100000250260
WSpd4 4 5 4 3 3 3 0 0 5 0 6 8
WGst-- -- -- -- -- -- -- -- -- -- -- -- --
Raw hourly METARs
KLAX 020653Z 18004KT 10SM OVC020 19/15 A2991 RMK AO2 SLP125 T01940150
KLAX 020753Z 18004KT 10SM OVC022 20/14 A2991 RMK AO2 SLP125 T02000144 402390189
KLAX 020853Z 15005KT 10SM OVC022 19/14 A2991 RMK AO2 SLP124 T01940144 50000
KLAX 020953Z 07004KT 10SM OVC022 20/14 A2990 RMK AO2 SLP123 T02000144
KLAX 021053Z 01003KT 10SM OVC022 20/14 A2990 RMK AO2 SLP121 T02000144
KLAX 021153Z 03003KT 10SM OVC022 20/14 A2990 RMK AO2 SLP123 T02000144 10200 20194 55001
KLAX 021253Z 01003KT 8SM OVC022 20/14 A2991 RMK AO2 SLP128 T02000144
KLAX 021353Z 00000KT 10SM OVC023 20/14 A2993 RMK AO2 SLP133 T02000144
KLAX 021453Z 00000KT 10SM OVC023 20/14 A2995 RMK AO2 SLP140 T02000144 53016
KLAX 021553Z VRB05KT 10SM FEW021 OVC024 21/15 A2996 RMK AO2 SLP144 T02110150
KLAX 021653Z 00000KT 10SM FEW021 OVC025 21/15 A2998 RMK AO2 SLP149 T02060150
KLAX 021753Z 25006KT 10SM FEW022 BKN026 22/16 A2997 RMK AO2 SLP148 T02170156 10217 20200 50008
KLAX 021853Z 26008KT 10SM SCT024 SCT110 23/16 A2996 RMK AO2 SLP145 T02280156



Page loaded:  19:50 UTC  |   12:50 PM Pacific  |   01:50 PM Mountain  |   02:50 PM Central  |   03:50 PM Eastern

 

ADVISORIES

FORECASTS

FORECASTS

OBSERVATIONS

USER TOOLS

ABOUT US